createdAt,value
2024-02-26T00:01:20.841Z,3.00
2024-02-26T00:03:55.056Z,2.70
2024-02-26T00:06:29.171Z,2.88
2024-02-26T00:08:56.025Z,2.75
2024-02-26T00:11:29.130Z,2.95
2024-02-26T00:13:55.974Z,3.30
2024-02-26T00:16:22.749Z,3.13
2024-02-26T00:18:56.124Z,3.22
2024-02-26T00:21:23.136Z,3.13
2024-02-26T00:23:54.801Z,2.90
2024-02-26T00:26:28.027Z,2.60
2024-02-26T00:28:54.790Z,3.17
2024-02-26T00:31:28.106Z,2.92
2024-02-26T00:33:55.143Z,3.22
2024-02-26T00:36:28.053Z,4.03
2024-02-26T00:39:01.139Z,3.35
2024-02-26T00:41:28.169Z,3.70
2024-02-26T00:44:01.087Z,3.95
2024-02-26T00:46:27.888Z,3.22
2024-02-26T00:49:01.226Z,3.90
2024-02-26T00:51:34.174Z,3.95
2024-02-26T00:54:07.083Z,4.25
2024-02-26T00:56:40.160Z,3.67
2024-02-26T00:59:14.141Z,4.40
2024-02-26T01:01:47.154Z,4.22
2024-02-26T01:04:13.959Z,4.60
2024-02-26T01:06:47.189Z,4.15
2024-02-26T01:09:14.057Z,4.63
2024-02-26T01:11:40.894Z,4.88
2024-02-26T01:14:14.165Z,5.15
2024-02-26T01:16:41.039Z,5.10
2024-02-26T01:19:07.949Z,4.97
2024-02-26T01:21:41.128Z,5.13
2024-02-26T01:24:15.178Z,4.22
2024-02-26T01:26:42.253Z,5.10
2024-02-26T01:29:09.089Z,5.22
2024-02-26T01:31:42.317Z,5.30
2024-02-26T01:34:09.311Z,4.97
2024-02-26T01:36:43.169Z,5.10
2024-02-26T01:39:12.772Z,5.10
2024-02-26T01:41:40.372Z,5.82
2024-02-26T01:44:14.170Z,5.00
2024-02-26T01:46:41.206Z,5.43
2024-02-26T01:49:19.425Z,4.93
2024-02-26T01:51:47.089Z,5.05
2024-02-26T01:54:14.297Z,5.07
2024-02-26T01:56:49.229Z,5.40
2024-02-26T01:59:16.224Z,5.15
2024-02-26T02:01:56.228Z,5.00
2024-02-26T02:04:25.572Z,5.35
2024-02-26T02:07:00.233Z,5.80
2024-02-26T02:09:28.686Z,6.00
2024-02-26T02:11:56.035Z,4.80
2024-02-26T02:14:29.332Z,5.22
2024-02-26T02:16:56.331Z,5.50
2024-02-26T02:19:29.265Z,5.55
2024-02-26T02:21:56.150Z,6.43
2024-02-26T02:24:29.338Z,5.93
2024-02-26T02:26:56.894Z,6.07
2024-02-26T02:29:24.482Z,5.30
2024-02-26T02:31:58.345Z,5.95
2024-02-26T02:34:32.413Z,6.07
2024-02-26T02:36:59.320Z,5.43
2024-02-26T02:39:26.164Z,5.22
2024-02-26T02:41:59.270Z,6.25
2024-02-26T02:44:26.175Z,6.28
2024-02-26T02:47:01.303Z,6.15
2024-02-26T02:49:28.191Z,7.38
2024-02-26T02:52:02.344Z,6.25
2024-02-26T02:54:35.341Z,5.88
2024-02-26T02:57:02.229Z,6.63
2024-02-26T02:59:35.342Z,6.70
2024-02-26T03:02:02.163Z,6.53
2024-02-26T03:04:37.559Z,6.75
2024-02-26T03:07:11.382Z,6.60
2024-02-26T03:09:38.118Z,6.68
2024-02-26T03:12:11.376Z,7.28
2024-02-26T03:14:38.228Z,6.85
2024-02-26T03:17:11.291Z,7.22
2024-02-26T03:19:38.140Z,6.63
2024-02-26T03:22:11.313Z,8.20
2024-02-26T03:24:38.086Z,6.90
2024-02-26T03:27:10.458Z,7.47
2024-02-26T03:29:45.378Z,6.85
2024-02-26T03:32:12.169Z,7.93
2024-02-26T03:34:47.540Z,6.97
2024-02-26T03:37:14.533Z,8.60
2024-02-26T03:39:41.373Z,8.82
2024-02-26T03:42:14.409Z,8.40
2024-02-26T03:44:41.182Z,8.27
2024-02-26T03:47:14.357Z,8.25
2024-02-26T03:49:41.348Z,8.15
2024-02-26T03:52:08.202Z,8.02
2024-02-26T03:54:41.369Z,8.63
2024-02-26T03:57:14.386Z,8.30
2024-02-26T03:59:47.467Z,8.43
2024-02-26T04:02:14.246Z,8.90
2024-02-26T04:04:41.274Z,8.52
2024-02-26T04:07:14.575Z,8.60
2024-02-26T04:09:41.431Z,8.52
2024-02-26T04:12:08.793Z,8.95
2024-02-26T04:14:43.446Z,8.30
2024-02-26T04:17:16.421Z,9.07
2024-02-26T04:19:43.290Z,7.95
2024-02-26T04:22:10.950Z,8.57
2024-02-26T04:24:44.476Z,8.40
2024-02-26T04:27:11.263Z,9.38
2024-02-26T04:29:44.466Z,9.20
2024-02-26T04:32:11.410Z,8.93
2024-02-26T04:34:38.653Z,8.93
2024-02-26T04:37:12.419Z,8.98
2024-02-26T04:39:47.387Z,8.73
2024-02-26T04:42:21.527Z,9.95
2024-02-26T04:44:48.333Z,9.05
2024-02-26T04:47:30.149Z,9.35
2024-02-26T04:49:57.090Z,9.13
2024-02-26T04:52:30.481Z,9.85
2024-02-26T04:54:57.280Z,9.52
2024-02-26T04:57:30.535Z,11.68
2024-02-26T04:59:57.371Z,11.20
2024-02-26T05:02:30.903Z,10.90
2024-02-26T05:05:04.513Z,10.68
2024-02-26T05:07:37.564Z,11.32
2024-02-26T05:10:04.599Z,11.60
2024-02-26T05:12:31.514Z,10.63
2024-02-26T05:15:04.596Z,11.00
2024-02-26T05:17:38.627Z,10.32
2024-02-26T05:20:15.571Z,11.73
2024-02-26T05:22:42.979Z,10.45
2024-02-26T05:25:16.563Z,11.77
2024-02-26T05:27:45.233Z,11.60
2024-02-26T05:30:19.638Z,11.00
2024-02-26T05:32:52.616Z,11.52
2024-02-26T05:35:19.522Z,11.43
2024-02-26T05:37:52.556Z,10.70
2024-02-26T05:40:25.606Z,11.27
2024-02-26T05:42:52.963Z,10.95
2024-02-26T05:45:26.577Z,10.48
2024-02-26T05:47:53.466Z,10.77
2024-02-26T05:50:26.561Z,10.82
2024-02-26T05:52:53.608Z,11.20
2024-02-26T05:55:26.555Z,11.63
2024-02-26T05:57:53.325Z,10.50
2024-02-26T06:00:26.656Z,11.15
2024-02-26T06:02:53.472Z,11.77
2024-02-26T06:05:26.585Z,11.95
2024-02-26T06:07:53.377Z,11.52
2024-02-26T06:10:34.942Z,11.52
2024-02-26T06:13:01.801Z,12.47
2024-02-26T06:15:28.722Z,12.25
2024-02-26T06:18:02.757Z,12.75
2024-02-26T06:20:30.054Z,12.43
2024-02-26T06:23:03.601Z,13.77
2024-02-26T06:25:36.621Z,13.20
2024-02-26T06:28:03.566Z,13.73
2024-02-26T06:30:36.781Z,12.32
2024-02-26T06:33:10.775Z,12.32
2024-02-26T06:35:44.714Z,12.57
2024-02-26T06:38:19.138Z,12.27
2024-02-26T06:40:53.619Z,13.18
2024-02-26T06:43:26.645Z,15.13
2024-02-26T06:45:53.395Z,13.18
2024-02-26T06:48:20.307Z,15.13
2024-02-26T06:50:53.685Z,15.82
2024-02-26T06:53:20.459Z,15.18
2024-02-26T06:55:53.678Z,16.33
2024-02-26T06:58:20.512Z,15.48
2024-02-26T07:00:47.700Z,16.33
2024-02-26T07:03:21.755Z,17.33
2024-02-26T07:05:54.776Z,16.40
2024-02-26T07:08:22.536Z,16.27
2024-02-26T07:10:55.765Z,16.70
2024-02-26T07:13:22.524Z,19.60
2024-02-26T07:15:55.761Z,18.70
2024-02-26T07:18:22.659Z,19.42
2024-02-26T07:20:49.632Z,18.98
2024-02-26T07:23:22.671Z,20.23
2024-02-26T07:25:51.035Z,21.67
2024-02-26T07:28:24.741Z,20.65
2024-02-26T07:30:54.470Z,21.98
2024-02-26T07:33:27.909Z,21.75
2024-02-26T07:35:55.005Z,22.20
2024-02-26T07:38:31.794Z,24.00
2024-02-26T07:41:14.729Z,24.40
2024-02-26T07:43:48.737Z,23.52
2024-02-26T07:46:15.710Z,22.75
2024-02-26T07:48:49.961Z,21.33
2024-02-26T07:51:16.909Z,22.35
2024-02-26T07:53:50.849Z,22.38
2024-02-26T07:56:23.773Z,22.25
2024-02-26T07:58:56.819Z,20.95
2024-02-26T08:01:23.888Z,20.65
2024-02-26T08:03:50.792Z,22.10
2024-02-26T08:06:24.958Z,19.50
2024-02-26T08:08:52.023Z,20.42
2024-02-26T08:11:25.808Z,19.70
2024-02-26T08:13:52.612Z,18.30
2024-02-26T08:16:27.640Z,16.90
2024-02-26T08:19:07.917Z,16.45
2024-02-26T08:21:40.785Z,15.23
2024-02-26T08:24:07.977Z,15.77
2024-02-26T08:26:40.798Z,15.18
2024-02-26T08:29:07.588Z,15.90
2024-02-26T08:31:40.774Z,14.95
2024-02-26T08:34:10.484Z,14.10
2024-02-26T08:36:49.105Z,13.63
2024-02-26T08:39:18.173Z,12.85
2024-02-26T08:41:54.854Z,12.38
2024-02-26T08:44:21.689Z,12.90
2024-02-26T08:46:54.816Z,12.90
2024-02-26T08:49:24.459Z,10.70
2024-02-26T08:51:57.853Z,11.68
2024-02-26T08:54:31.922Z,11.65
2024-02-26T08:56:58.740Z,11.27
2024-02-26T08:59:25.694Z,10.23
2024-02-26T09:01:58.883Z,10.38
2024-02-26T09:04:31.903Z,11.35
2024-02-26T09:06:58.763Z,10.93
2024-02-26T09:09:27.561Z,10.40
2024-02-26T09:12:02.931Z,10.20
2024-02-26T09:14:29.725Z,9.65
2024-02-26T09:17:02.927Z,10.23
2024-02-26T09:19:29.850Z,9.20
2024-02-26T09:22:04.936Z,9.52
2024-02-26T09:24:37.973Z,8.57
2024-02-26T09:27:05.074Z,8.40
2024-02-26T09:29:37.871Z,8.30
2024-02-26T09:32:05.049Z,8.60
2024-02-26T09:34:44.949Z,8.88
2024-02-26T09:37:21.925Z,8.10
2024-02-26T09:39:56.011Z,7.53
2024-02-26T09:42:31.178Z,8.32
2024-02-26T09:45:09.129Z,8.60
2024-02-26T09:47:37.433Z,7.35
2024-02-26T09:50:06.394Z,7.75
2024-02-26T09:52:41.922Z,7.88
2024-02-26T09:55:10.879Z,8.02
2024-02-26T09:57:53.303Z,8.10
2024-02-26T10:00:22.046Z,7.80
2024-02-26T10:02:55.962Z,7.95
2024-02-26T10:05:29.946Z,7.13
2024-02-26T10:07:58.865Z,7.28
2024-02-26T10:10:32.987Z,6.78
2024-02-26T10:13:02.079Z,7.65
2024-02-26T10:15:29.177Z,8.25
2024-02-26T10:18:03.097Z,7.25
2024-02-26T10:20:30.317Z,7.35
2024-02-26T10:23:04.031Z,8.20
2024-02-26T10:25:32.424Z,7.78
2024-02-26T10:28:12.012Z,8.38
2024-02-26T10:30:39.364Z,7.55
2024-02-26T10:33:15.237Z,9.10
2024-02-26T10:35:56.044Z,8.18
2024-02-26T10:38:30.980Z,7.70
2024-02-26T10:41:04.045Z,7.60
2024-02-26T10:43:30.947Z,8.18
2024-02-26T10:46:04.022Z,7.95
2024-02-26T10:48:37.211Z,7.72
2024-02-26T10:51:05.129Z,8.15
2024-02-26T10:53:41.044Z,8.13
2024-02-26T10:56:15.135Z,7.95
2024-02-26T10:58:43.392Z,7.00
2024-02-26T11:01:17.114Z,6.88
2024-02-26T11:03:44.595Z,7.35
2024-02-26T11:06:13.604Z,7.10
2024-02-26T11:08:48.082Z,8.05
2024-02-26T11:11:16.585Z,7.70
2024-02-26T11:13:53.033Z,7.10
2024-02-26T11:16:21.465Z,7.72
2024-02-26T11:18:49.597Z,7.20
2024-02-26T11:21:27.097Z,7.75
2024-02-26T11:24:01.097Z,7.05
2024-02-26T11:26:35.116Z,7.35
2024-02-26T11:29:02.785Z,7.80
2024-02-26T11:31:30.272Z,7.10
2024-02-26T11:34:04.502Z,8.18
2024-02-26T11:36:31.468Z,7.88
2024-02-26T11:39:05.118Z,8.55
2024-02-26T11:41:33.079Z,7.07
2024-02-26T11:44:09.212Z,7.68
2024-02-26T11:46:44.350Z,8.00
2024-02-26T11:49:36.256Z,6.90
2024-02-26T11:52:15.096Z,7.75
2024-02-26T11:54:53.635Z,8.45
2024-02-26T11:57:37.177Z,7.45
2024-02-26T12:00:20.214Z,7.70
2024-02-26T12:03:06.587Z,7.70
2024-02-26T12:05:42.130Z,8.07
2024-02-26T12:08:10.146Z,8.27
2024-02-26T12:10:41.523Z,7.57
2024-02-26T12:13:22.168Z,8.18
2024-02-26T12:15:59.246Z,7.80
2024-02-26T12:18:33.264Z,8.00
2024-02-26T12:21:05.314Z,7.07
2024-02-26T12:23:39.145Z,6.80
2024-02-26T12:26:07.881Z,7.95
2024-02-26T12:28:43.234Z,7.28
2024-02-26T12:31:10.029Z,7.03
2024-02-26T12:33:43.538Z,6.85
2024-02-26T12:36:10.569Z,7.30
2024-02-26T12:38:45.406Z,7.05
2024-02-26T12:41:19.219Z,7.75
2024-02-26T12:43:49.573Z,7.38
2024-02-26T12:46:17.737Z,7.60
2024-02-26T12:48:52.399Z,7.00
2024-02-26T12:51:20.184Z,7.40
2024-02-26T12:53:54.237Z,6.68
2024-02-26T12:56:22.144Z,7.53
2024-02-26T12:58:50.394Z,7.93
2024-02-26T13:01:28.373Z,6.78
2024-02-26T13:04:02.313Z,6.97
2024-02-26T13:06:29.224Z,6.65
2024-02-26T13:09:06.235Z,6.40
2024-02-26T13:11:40.219Z,6.20
2024-02-26T13:14:09.000Z,6.75
2024-02-26T13:16:43.283Z,6.93
2024-02-26T13:19:19.385Z,6.72
2024-02-26T13:21:53.293Z,6.55
2024-02-26T13:24:21.590Z,6.43
2024-02-26T13:26:55.272Z,6.57
2024-02-26T13:29:22.170Z,6.45
2024-02-26T13:31:55.258Z,6.72
2024-02-26T13:34:29.578Z,6.82
2024-02-26T13:37:03.265Z,6.00
2024-02-26T13:39:31.384Z,6.68
2024-02-26T13:42:05.287Z,6.38
2024-02-26T13:44:32.691Z,6.72
2024-02-26T13:47:00.095Z,6.65
2024-02-26T13:49:33.369Z,5.55
2024-02-26T13:52:00.496Z,6.53
2024-02-26T13:54:34.390Z,5.97
2024-02-26T13:57:01.335Z,5.97
2024-02-26T13:59:35.729Z,6.00
2024-02-26T14:02:02.669Z,5.28
2024-02-26T14:04:36.407Z,5.60
2024-02-26T14:07:11.426Z,4.60
2024-02-26T14:09:46.361Z,5.70
2024-02-26T14:12:25.174Z,5.25
2024-02-26T14:14:54.553Z,5.30
2024-02-26T14:17:28.397Z,4.85
2024-02-26T14:19:55.427Z,5.18
2024-02-26T14:22:28.342Z,5.40
2024-02-26T14:24:55.135Z,5.88
2024-02-26T14:27:23.397Z,5.22
2024-02-26T14:29:56.492Z,5.22
2024-02-26T14:32:23.433Z,5.50
2024-02-26T14:34:56.445Z,5.10
2024-02-26T14:37:23.271Z,5.20
2024-02-26T14:39:59.359Z,5.20
2024-02-26T14:42:26.170Z,4.70
2024-02-26T14:44:59.415Z,5.30
2024-02-26T14:47:32.392Z,4.90
2024-02-26T14:49:59.315Z,4.60
2024-02-26T14:52:32.437Z,4.03
2024-02-26T14:54:59.204Z,4.53
2024-02-26T14:57:26.162Z,4.68
2024-02-26T14:59:59.460Z,4.10
2024-02-26T15:02:32.435Z,4.82
2024-02-26T15:04:59.282Z,4.40
2024-02-26T15:07:32.484Z,3.70
2024-02-26T15:10:00.717Z,3.90
2024-02-26T15:12:35.637Z,3.70
2024-02-26T15:15:02.479Z,3.60
2024-02-26T15:17:35.668Z,3.95
2024-02-26T15:20:02.973Z,4.30
2024-02-26T15:22:36.441Z,4.30
2024-02-26T15:25:03.397Z,3.88
2024-02-26T15:27:36.592Z,4.60
2024-02-26T15:30:10.676Z,4.78
2024-02-26T15:32:44.610Z,4.22
2024-02-26T15:35:18.511Z,4.70
2024-02-26T15:37:51.609Z,4.65
2024-02-26T15:40:19.584Z,4.88
2024-02-26T15:42:55.533Z,4.88
2024-02-26T15:45:22.363Z,5.03
2024-02-26T15:47:49.493Z,4.50
2024-02-26T15:50:22.560Z,4.60
2024-02-26T15:52:49.386Z,4.97
2024-02-26T15:55:18.663Z,4.60
2024-02-26T15:57:52.494Z,4.82
2024-02-26T16:00:19.565Z,4.70
2024-02-26T16:02:50.571Z,4.70
2024-02-26T16:05:24.862Z,3.97
2024-02-26T16:08:03.503Z,4.70
2024-02-26T16:10:31.417Z,4.57
2024-02-26T16:13:09.505Z,4.95
2024-02-26T16:15:36.678Z,5.18
2024-02-26T16:18:04.028Z,5.45
2024-02-26T16:20:37.556Z,5.00
2024-02-26T16:23:07.871Z,5.10
2024-02-26T16:25:42.572Z,5.20
2024-02-26T16:28:09.712Z,5.22
2024-02-26T16:30:36.788Z,5.47
2024-02-26T16:33:11.088Z,4.75
2024-02-26T16:35:38.209Z,5.57
2024-02-26T16:38:11.587Z,5.68
2024-02-26T16:40:47.757Z,5.40
2024-02-26T16:43:14.597Z,5.45
2024-02-26T16:45:47.735Z,5.10
2024-02-26T16:48:21.647Z,5.47
2024-02-26T16:50:54.683Z,5.22
2024-02-26T16:53:27.575Z,5.47
2024-02-26T16:56:00.582Z,5.20
2024-02-26T16:58:27.352Z,5.32
2024-02-26T17:01:02.647Z,5.70
2024-02-26T17:03:32.118Z,5.70
2024-02-26T17:06:06.875Z,5.50
2024-02-26T17:08:41.589Z,6.22
2024-02-26T17:11:14.709Z,6.20
2024-02-26T17:13:41.875Z,6.10
2024-02-26T17:16:08.712Z,6.05
2024-02-26T17:18:41.793Z,5.97
2024-02-26T17:21:09.795Z,6.45
2024-02-26T17:23:43.666Z,5.97
2024-02-26T17:26:12.214Z,6.50
2024-02-26T17:28:49.727Z,5.93
2024-02-26T17:31:18.719Z,6.47
2024-02-26T17:33:52.846Z,6.20
2024-02-26T17:36:21.840Z,6.70
2024-02-26T17:38:49.615Z,6.10
2024-02-26T17:41:22.642Z,6.13
2024-02-26T17:43:49.357Z,6.03
2024-02-26T17:46:22.731Z,6.35
2024-02-26T17:48:49.856Z,6.90
2024-02-26T17:51:16.710Z,6.75
2024-02-26T17:53:49.729Z,7.10
2024-02-26T17:56:17.619Z,6.60
2024-02-26T17:58:50.698Z,6.20
2024-02-26T18:01:17.516Z,6.55
2024-02-26T18:03:50.749Z,7.05
2024-02-26T18:06:17.722Z,6.40
2024-02-26T18:08:44.629Z,6.15
2024-02-26T18:11:19.772Z,6.22
2024-02-26T18:13:52.745Z,7.25
2024-02-26T18:16:19.712Z,6.57
2024-02-26T18:18:54.848Z,6.68
2024-02-26T18:21:23.361Z,6.53
2024-02-26T18:23:51.225Z,6.70
2024-02-26T18:26:28.729Z,6.28
2024-02-26T18:29:01.722Z,6.40
2024-02-26T18:31:29.899Z,6.80
2024-02-26T18:33:57.015Z,6.68
2024-02-26T18:36:30.903Z,6.45
2024-02-26T18:38:58.339Z,6.82
2024-02-26T18:41:25.343Z,6.15
2024-02-26T18:44:00.759Z,7.00
2024-02-26T18:46:27.857Z,6.07
2024-02-26T18:48:54.784Z,5.88
2024-02-26T18:51:28.852Z,5.38
2024-02-26T18:54:01.920Z,5.35
2024-02-26T18:56:29.104Z,4.93
2024-02-26T18:58:56.292Z,5.30
2024-02-26T19:01:29.956Z,4.60
2024-02-26T19:04:03.876Z,4.72
2024-02-26T19:06:40.017Z,5.00
2024-02-26T19:09:07.846Z,4.88
2024-02-26T19:11:40.836Z,4.40
2024-02-26T19:14:08.487Z,4.32
2024-02-26T19:16:42.911Z,4.40
2024-02-26T19:19:09.972Z,3.95
2024-02-26T19:21:43.914Z,4.75
2024-02-26T19:24:11.353Z,4.35
2024-02-26T19:26:41.643Z,4.10
2024-02-26T19:29:14.807Z,4.50
2024-02-26T19:31:47.877Z,3.83
2024-02-26T19:34:21.050Z,4.13
2024-02-26T19:36:47.968Z,5.05
2024-02-26T19:39:14.886Z,4.38
2024-02-26T19:41:47.844Z,4.47
2024-02-26T19:44:20.830Z,4.07
2024-02-26T19:46:54.405Z,4.10
2024-02-26T19:49:27.926Z,4.93
2024-02-26T19:51:54.780Z,4.57
2024-02-26T19:54:27.952Z,4.55
2024-02-26T19:57:00.982Z,4.80
2024-02-26T19:59:28.097Z,5.00
2024-02-26T20:02:01.941Z,5.03
2024-02-26T20:04:35.980Z,5.28
2024-02-26T20:07:23.854Z,4.63
2024-02-26T20:10:03.890Z,5.47
2024-02-26T20:12:37.003Z,5.00
2024-02-26T20:15:04.272Z,4.95
2024-02-26T20:17:37.903Z,5.70
2024-02-26T20:20:11.947Z,5.47
2024-02-26T20:22:40.390Z,6.00
2024-02-26T20:25:07.777Z,5.22
2024-02-26T20:27:42.933Z,5.38
2024-02-26T20:30:10.516Z,6.20
2024-02-26T20:32:44.024Z,6.80
2024-02-26T20:35:11.639Z,6.13
2024-02-26T20:37:44.994Z,6.28
2024-02-26T20:40:12.372Z,6.40
2024-02-26T20:42:40.253Z,6.43
2024-02-26T20:45:14.011Z,6.47
2024-02-26T20:47:41.899Z,6.80
2024-02-26T20:50:16.041Z,6.70
2024-02-26T20:52:42.782Z,6.80
2024-02-26T20:55:10.372Z,6.25
2024-02-26T20:57:44.025Z,5.95
2024-02-26T21:00:11.800Z,6.28
2024-02-26T21:02:45.010Z,5.93
2024-02-26T21:05:12.023Z,6.22
2024-02-26T21:07:47.032Z,6.78
2024-02-26T21:10:14.362Z,6.45
2024-02-26T21:12:48.014Z,6.00
2024-02-26T21:15:14.780Z,5.90
2024-02-26T21:17:41.575Z,6.35
2024-02-26T21:20:15.996Z,6.65
2024-02-26T21:22:44.985Z,6.50
2024-02-26T21:25:11.848Z,6.60
2024-02-26T21:27:45.004Z,6.30
2024-02-26T21:30:21.060Z,6.65
2024-02-26T21:32:47.862Z,6.88
2024-02-26T21:35:21.024Z,7.50
2024-02-26T21:37:54.024Z,7.25
2024-02-26T21:40:27.073Z,6.45
2024-02-26T21:42:53.916Z,7.57
2024-02-26T21:45:28.016Z,6.68
2024-02-26T21:47:54.921Z,7.28
2024-02-26T21:50:21.915Z,7.53
2024-02-26T21:52:56.060Z,7.10
2024-02-26T21:55:24.724Z,7.05
2024-02-26T21:57:58.037Z,7.72
2024-02-26T22:00:24.842Z,7.88
2024-02-26T22:03:05.196Z,7.40
2024-02-26T22:05:31.955Z,7.47
2024-02-26T22:08:05.075Z,7.03
2024-02-26T22:10:31.800Z,7.78
2024-02-26T22:13:05.111Z,7.95
2024-02-26T22:15:31.923Z,7.57
2024-02-26T22:17:58.944Z,7.38
2024-02-26T22:20:32.073Z,7.15
2024-02-26T22:22:58.947Z,6.95
2024-02-26T22:25:32.098Z,7.88
2024-02-26T22:27:59.010Z,7.00
2024-02-26T22:30:32.121Z,7.47
2024-02-26T22:33:00.305Z,7.38
2024-02-26T22:35:27.301Z,6.95
2024-02-26T22:38:01.115Z,8.05
2024-02-26T22:40:27.847Z,7.82
2024-02-26T22:43:03.106Z,7.32
2024-02-26T22:45:29.954Z,8.63
2024-02-26T22:47:56.854Z,7.85
2024-02-26T22:50:30.101Z,7.43
2024-02-26T22:52:56.819Z,7.22
2024-02-26T22:55:32.172Z,7.80
2024-02-26T22:57:59.013Z,8.00
2024-02-26T23:00:39.217Z,7.70
2024-02-26T23:03:06.513Z,7.63
2024-02-26T23:05:41.160Z,6.80
2024-02-26T23:08:10.420Z,8.35
2024-02-26T23:10:45.225Z,8.23
2024-02-26T23:13:12.078Z,8.48
2024-02-26T23:15:45.241Z,7.60
2024-02-26T23:18:12.185Z,7.22
2024-02-26T23:20:39.067Z,6.85
2024-02-26T23:23:12.263Z,6.93
2024-02-26T23:25:39.328Z,7.35
2024-02-26T23:28:16.186Z,7.82
2024-02-26T23:30:43.072Z,7.68
2024-02-26T23:33:16.335Z,8.18
2024-02-26T23:35:43.279Z,7.22
2024-02-26T23:38:10.141Z,7.75
2024-02-26T23:40:43.186Z,7.20
2024-02-26T23:43:10.137Z,7.30
2024-02-26T23:45:43.321Z,7.03
2024-02-26T23:48:10.259Z,6.90
2024-02-26T23:50:43.306Z,7.57
2024-02-26T23:53:17.217Z,7.03
2024-02-26T23:55:43.970Z,8.27
2024-02-26T23:58:17.290Z,7.68
